SBSL/SLZ METAR and TAF weather

Enter ICAO airport designator
Station Type Date Time Source
SBSL METAR 2021/01/16 02:00 UTC NOAA

SBSL 160200Z 04006KT CAVOK 26/24 Q1009


Station Type Date Time Source
SBSL Decoded METAR 2021/01/16 02:00 UTC NOAA

Sao Luiz Aeroporto , Brazil (SBSL) 02-36S 044-14W 53M
Jan 15, 2021 - 09:00 PM EST / 2021.01.16 0200 UTC
Wind: from the NE (040 degrees) at 7 MPH (6 KT):0
Visibility: greater than 7 mile(s):0
Temperature: 78 F (26 C)
Dew Point: 75 F (24 C)
Relative Humidity: 88%
Pressure (altimeter): 29.80 in. Hg (1009 hPa)
ob: SBSL 160200Z 04006KT CAVOK 26/24 Q1009
cycle: 2

Station Type Date Time Source
SBSL TAF 2021/01/16 00:00 UTC NOAA

TAF SBSL 152100Z 1600/1624 05010KT 9999 SCT017 TN26/1609Z TX31/1618Z
BECMG 1603/1605 06007KT
BECMG 1609/1611 06013KT BKN020
BECMG 1615/1617 04017KT 8000 BKN025 FEW030TCU
BECMG 1620/1622 05012KT 9999 SCT017
RMK PHN

Example: see airport list